sensor_id;sensor_type;location;lat;lon;timestamp;P1;durP1;ratioP1;P2;durP2;ratioP2
18267;SDS011;9260;49.998;19.880;2023-04-09T00:08:40;237.53;;;114.47;;
18267;SDS011;9260;49.998;19.880;2023-04-09T00:18:45;234.77;;;113.37;;
18267;SDS011;9260;49.998;19.880;2023-04-09T00:28:50;244.80;;;114.10;;
18267;SDS011;9260;49.998;19.880;2023-04-09T00:38:55;251.50;;;120.43;;
18267;SDS011;9260;49.998;19.880;2023-04-09T00:48:59;259.43;;;121.13;;
18267;SDS011;9260;49.998;19.880;2023-04-09T00:59:04;258.27;;;121.83;;
18267;SDS011;9260;49.998;19.880;2023-04-09T01:09:09;260.97;;;121.73;;
18267;SDS011;9260;49.998;19.880;2023-04-09T01:19:27;262.57;;;126.97;;
18267;SDS011;9260;49.998;19.880;2023-04-09T01:29:46;248.87;;;117.77;;
18267;SDS011;9260;49.998;19.880;2023-04-09T01:39:53;253.70;;;122.13;;
18267;SDS011;9260;49.998;19.880;2023-04-09T01:49:58;252.17;;;120.93;;
18267;SDS011;9260;49.998;19.880;2023-04-09T02:00:04;261.57;;;123.10;;
18267;SDS011;9260;49.998;19.880;2023-04-09T02:10:17;254.03;;;121.73;;
18267;SDS011;9260;49.998;19.880;2023-04-09T02:20:24;259.43;;;124.47;;
18267;SDS011;9260;49.998;19.880;2023-04-09T02:30:30;272.43;;;129.43;;
18267;SDS011;9260;49.998;19.880;2023-04-09T02:40:34;249.57;;;119.67;;
18267;SDS011;9260;49.998;19.880;2023-04-09T02:50:39;259.07;;;123.30;;
18267;SDS011;9260;49.998;19.880;2023-04-09T03:00:43;254.20;;;122.40;;
18267;SDS011;9260;49.998;19.880;2023-04-09T03:10:48;249.37;;;117.63;;
18267;SDS011;9260;49.998;19.880;2023-04-09T03:20:52;255.50;;;122.33;;
18267;SDS011;9260;49.998;19.880;2023-04-09T03:31:00;248.47;;;119.67;;
18267;SDS011;9260;49.998;19.880;2023-04-09T03:41:09;250.43;;;120.07;;
18267;SDS011;9260;49.998;19.880;2023-04-09T03:51:15;254.37;;;120.07;;
18267;SDS011;9260;49.998;19.880;2023-04-09T04:01:25;255.50;;;123.50;;
18267;SDS011;9260;49.998;19.880;2023-04-09T04:11:34;258.53;;;127.77;;
18267;SDS011;9260;49.998;19.880;2023-04-09T04:21:38;265.77;;;131.60;;
18267;SDS011;9260;49.998;19.880;2023-04-09T04:31:43;269.83;;;128.17;;
18267;SDS011;9260;49.998;19.880;2023-04-09T04:41:50;272.33;;;132.23;;
18267;SDS011;9260;49.998;19.880;2023-04-09T04:52:00;285.47;;;138.50;;
18267;SDS011;9260;49.998;19.880;2023-04-09T05:02:05;285.10;;;134.37;;
18267;SDS011;9260;49.998;19.880;2023-04-09T05:12:21;288.43;;;135.47;;
18267;SDS011;9260;49.998;19.880;2023-04-09T05:22:27;283.43;;;136.43;;
18267;SDS011;9260;49.998;19.880;2023-04-09T05:32:33;278.37;;;134.10;;
18267;SDS011;9260;49.998;19.880;2023-04-09T05:42:38;286.63;;;140.97;;
18267;SDS011;9260;49.998;19.880;2023-04-09T05:52:52;281.50;;;135.33;;
18267;SDS011;9260;49.998;19.880;2023-04-09T06:03:03;281.10;;;138.27;;
18267;SDS011;9260;49.998;19.880;2023-04-09T06:13:10;277.20;;;136.43;;
18267;SDS011;9260;49.998;19.880;2023-04-09T06:23:15;279.67;;;147.53;;
18267;SDS011;9260;49.998;19.880;2023-04-09T06:33:20;262.50;;;128.40;;
18267;SDS011;9260;49.998;19.880;2023-04-09T06:43:24;265.53;;;129.50;;
18267;SDS011;9260;49.998;19.880;2023-04-09T06:53:30;257.40;;;126.87;;
18267;SDS011;9260;49.998;19.880;2023-04-09T07:03:33;263.53;;;129.03;;
18267;SDS011;9260;49.998;19.880;2023-04-09T07:13:39;261.37;;;131.83;;
18267;SDS011;9260;49.998;19.880;2023-04-09T07:23:43;261.30;;;129.10;;
18267;SDS011;9260;49.998;19.880;2023-04-09T07:33:48;257.47;;;126.73;;
18267;SDS011;9260;49.998;19.880;2023-04-09T07:43:53;252.53;;;128.10;;
18267;SDS011;9260;49.998;19.880;2023-04-09T07:53:58;251.73;;;127.47;;
18267;SDS011;9260;49.998;19.880;2023-04-09T08:04:02;249.77;;;128.17;;
18267;SDS011;9260;49.998;19.880;2023-04-09T08:14:08;236.10;;;120.37;;
18267;SDS011;9260;49.998;19.880;2023-04-09T08:24:13;237.17;;;122.57;;
18267;SDS011;9260;49.998;19.880;2023-04-09T08:34:19;239.53;;;130.47;;
18267;SDS011;9260;49.998;19.880;2023-04-09T08:44:24;242.00;;;130.60;;
18267;SDS011;9260;49.998;19.880;2023-04-09T08:54:29;234.90;;;130.47;;
18267;SDS011;9260;49.998;19.880;2023-04-09T09:04:42;232.23;;;122.53;;
18267;SDS011;9260;49.998;19.880;2023-04-09T09:14:49;230.57;;;130.00;;
18267;SDS011;9260;49.998;19.880;2023-04-09T09:24:53;219.47;;;126.30;;
18267;SDS011;9260;49.998;19.880;2023-04-09T09:34:59;221.77;;;127.00;;
18267;SDS011;9260;49.998;19.880;2023-04-09T09:45:06;227.27;;;126.07;;
18267;SDS011;9260;49.998;19.880;2023-04-09T09:55:22;230.37;;;125.17;;
18267;SDS011;9260;49.998;19.880;2023-04-09T10:05:29;230.97;;;121.13;;
18267;SDS011;9260;49.998;19.880;2023-04-09T10:15:37;222.00;;;113.17;;
18267;SDS011;9260;49.998;19.880;2023-04-09T10:25:43;229.00;;;127.70;;
18267;SDS011;9260;49.998;19.880;2023-04-09T10:35:49;224.30;;;125.13;;
18267;SDS011;9260;49.998;19.880;2023-04-09T10:45:55;227.63;;;123.13;;
18267;SDS011;9260;49.998;19.880;2023-04-09T10:56:04;233.83;;;124.20;;
18267;SDS011;9260;49.998;19.880;2023-04-09T11:06:17;238.60;;;118.90;;
18267;SDS011;9260;49.998;19.880;2023-04-09T11:16:26;240.37;;;113.77;;
18267;SDS011;9260;49.998;19.880;2023-04-09T11:26:33;243.07;;;114.50;;
18267;SDS011;9260;49.998;19.880;2023-04-09T11:36:39;227.53;;;109.63;;
18267;SDS011;9260;49.998;19.880;2023-04-09T11:46:43;225.90;;;108.50;;
18267;SDS011;9260;49.998;19.880;2023-04-09T11:56:50;226.17;;;108.50;;
18267;SDS011;9260;49.998;19.880;2023-04-09T12:06:56;228.17;;;112.00;;
18267;SDS011;9260;49.998;19.880;2023-04-09T12:17:01;228.43;;;111.53;;
18267;SDS011;9260;49.998;19.880;2023-04-09T12:27:05;225.60;;;111.17;;
18267;SDS011;9260;49.998;19.880;2023-04-09T12:37:10;226.33;;;113.37;;
18267;SDS011;9260;49.998;19.880;2023-04-09T12:47:14;227.67;;;111.20;;
18267;SDS011;9260;49.998;19.880;2023-04-09T12:57:19;230.70;;;113.20;;
18267;SDS011;9260;49.998;19.880;2023-04-09T13:07:23;222.47;;;109.57;;
18267;SDS011;9260;49.998;19.880;2023-04-09T13:17:31;227.43;;;112.37;;
18267;SDS011;9260;49.998;19.880;2023-04-09T13:27:35;227.20;;;112.20;;
18267;SDS011;9260;49.998;19.880;2023-04-09T13:37:40;221.63;;;106.70;;
18267;SDS011;9260;49.998;19.880;2023-04-09T13:47:44;225.37;;;107.23;;
18267;SDS011;9260;49.998;19.880;2023-04-09T13:57:49;222.17;;;111.73;;
18267;SDS011;9260;49.998;19.880;2023-04-09T14:07:53;229.17;;;114.67;;
18267;SDS011;9260;49.998;19.880;2023-04-09T14:17:58;225.87;;;113.17;;
18267;SDS011;9260;49.998;19.880;2023-04-09T14:28:02;223.87;;;112.43;;
18267;SDS011;9260;49.998;19.880;2023-04-09T14:38:07;225.80;;;110.87;;
18267;SDS011;9260;49.998;19.880;2023-04-09T14:48:11;225.27;;;115.40;;
18267;SDS011;9260;49.998;19.880;2023-04-09T14:58:16;228.93;;;118.80;;
18267;SDS011;9260;49.998;19.880;2023-04-09T15:08:20;228.07;;;114.40;;
18267;SDS011;9260;49.998;19.880;2023-04-09T15:18:25;220.67;;;107.30;;
18267;SDS011;9260;49.998;19.880;2023-04-09T15:28:29;225.90;;;111.40;;
18267;SDS011;9260;49.998;19.880;2023-04-09T15:38:34;222.27;;;110.57;;
18267;SDS011;9260;49.998;19.880;2023-04-09T15:48:37;222.30;;;110.53;;
18267;SDS011;9260;49.998;19.880;2023-04-09T15:58:43;232.90;;;112.83;;
18267;SDS011;9260;49.998;19.880;2023-04-09T16:08:47;228.17;;;112.10;;
18267;SDS011;9260;49.998;19.880;2023-04-09T16:18:53;239.00;;;119.43;;
18267;SDS011;9260;49.998;19.880;2023-04-09T16:28:57;228.67;;;115.30;;
18267;SDS011;9260;49.998;19.880;2023-04-09T16:39:06;223.93;;;107.83;;
18267;SDS011;9260;49.998;19.880;2023-04-09T16:49:09;228.97;;;114.20;;
18267;SDS011;9260;49.998;19.880;2023-04-09T16:59:14;227.67;;;110.50;;
18267;SDS011;9260;49.998;19.880;2023-04-09T17:09:21;224.43;;;106.73;;
18267;SDS011;9260;49.998;19.880;2023-04-09T17:19:27;225.43;;;106.23;;
18267;SDS011;9260;49.998;19.880;2023-04-09T17:29:30;227.73;;;103.50;;
18267;SDS011;9260;49.998;19.880;2023-04-09T17:39:36;221.67;;;106.13;;
18267;SDS011;9260;49.998;19.880;2023-04-09T17:49:39;219.27;;;103.03;;
18267;SDS011;9260;49.998;19.880;2023-04-09T17:59:44;222.97;;;107.93;;
18267;SDS011;9260;49.998;19.880;2023-04-09T18:09:49;224.10;;;106.57;;
18267;SDS011;9260;49.998;19.880;2023-04-09T18:19:54;229.77;;;114.80;;
18267;SDS011;9260;49.998;19.880;2023-04-09T18:29:59;225.90;;;108.93;;
18267;SDS011;9260;49.998;19.880;2023-04-09T18:40:05;219.40;;;102.23;;
18267;SDS011;9260;49.998;19.880;2023-04-09T18:50:12;222.77;;;100.80;;
18267;SDS011;9260;49.998;19.880;2023-04-09T19:00:19;226.93;;;102.47;;
18267;SDS011;9260;49.998;19.880;2023-04-09T19:10:23;218.97;;;99.33;;
18267;SDS011;9260;49.998;19.880;2023-04-09T19:20:28;223.37;;;106.73;;
18267;SDS011;9260;49.998;19.880;2023-04-09T19:30:35;227.80;;;110.17;;
18267;SDS011;9260;49.998;19.880;2023-04-09T19:40:40;225.13;;;105.87;;
18267;SDS011;9260;49.998;19.880;2023-04-09T19:50:44;227.03;;;113.57;;
18267;SDS011;9260;49.998;19.880;2023-04-09T20:00:50;231.47;;;105.43;;
18267;SDS011;9260;49.998;19.880;2023-04-09T20:10:54;222.43;;;108.27;;
18267;SDS011;9260;49.998;19.880;2023-04-09T20:20:59;222.70;;;108.03;;
18267;SDS011;9260;49.998;19.880;2023-04-09T20:31:03;228.87;;;108.67;;
18267;SDS011;9260;49.998;19.880;2023-04-09T20:41:09;228.20;;;107.60;;
18267;SDS011;9260;49.998;19.880;2023-04-09T20:51:13;240.13;;;109.50;;
18267;SDS011;9260;49.998;19.880;2023-04-09T21:01:20;242.77;;;115.57;;
18267;SDS011;9260;49.998;19.880;2023-04-09T21:11:24;234.63;;;107.50;;
18267;SDS011;9260;49.998;19.880;2023-04-09T21:21:29;234.87;;;109.73;;
18267;SDS011;9260;49.998;19.880;2023-04-09T21:31:32;229.00;;;106.10;;
18267;SDS011;9260;49.998;19.880;2023-04-09T21:41:38;233.17;;;114.10;;
18267;SDS011;9260;49.998;19.880;2023-04-09T21:51:43;229.33;;;102.37;;
18267;SDS011;9260;49.998;19.880;2023-04-09T22:01:49;239.73;;;110.10;;
18267;SDS011;9260;49.998;19.880;2023-04-09T22:11:53;241.13;;;116.87;;
18267;SDS011;9260;49.998;19.880;2023-04-09T22:21:59;260.60;;;121.43;;
18267;SDS011;9260;49.998;19.880;2023-04-09T22:32:02;244.77;;;114.37;;
18267;SDS011;9260;49.998;19.880;2023-04-09T22:42:08;255.53;;;122.97;;
18267;SDS011;9260;49.998;19.880;2023-04-09T22:52:12;258.00;;;123.67;;
18267;SDS011;9260;49.998;19.880;2023-04-09T23:02:17;256.20;;;121.80;;
18267;SDS011;9260;49.998;19.880;2023-04-09T23:12:21;256.17;;;122.00;;
18267;SDS011;9260;49.998;19.880;2023-04-09T23:22:26;249.43;;;117.30;;
18267;SDS011;9260;49.998;19.880;2023-04-09T23:32:30;250.53;;;118.30;;
18267;SDS011;9260;49.998;19.880;2023-04-09T23:42:35;251.40;;;118.67;;
18267;SDS011;9260;49.998;19.880;2023-04-09T23:52:44;247.47;;;115.77;;
